Terminal Aerodrome Forecast
Issued by NWS Greer, SC

Home | Current Version | Previous Version | Text Only | Print | Product List | Glossary On
Versions: 1 2 3 4 5 6 7 8 9 10 11 12 13 14 15 16 17 18 19 20 21 22 23 24 25 26 27 28 29 30 31 32 33 34 35 36 37 38
568
FTUS42 KGSP 191736
TAFAVL
TAF
KAVL 191736Z 1918/2018 14006KT P6SM SCT050 BKN110
     FM200200 15004KT P6SM VCSH OVC050
     FM200500 14004KT 4SM -SHRA SCT012 OVC040
     FM200900 14004KT 3SM SHRA BR OVC010 WS020/20030KT
     FM201200 13003KT 2SM BR BKN010 PROB30 2012/2015 1SM -SHRA BR
      OVC003
     FM201500 20003KT P6SM BKN040=

USA.gov is the U.S. government's official web portal to all federal, state and local government web resources and services.